createdAt,value
2022-12-08T00:01:35.485Z,95814.41
2022-12-08T00:04:04.782Z,95814.04
2022-12-08T00:06:51.550Z,95808.64
2022-12-08T00:09:38.739Z,95803.02
2022-12-08T00:12:13.566Z,95803.27
2022-12-08T00:14:44.257Z,95807.75
2022-12-08T00:17:14.649Z,95803.54
2022-12-08T00:19:43.287Z,95805.58
2022-12-08T00:22:14.906Z,95807.18
2022-12-08T00:24:45.726Z,95807.60
2022-12-08T00:27:15.967Z,95811.73
2022-12-08T00:29:45.680Z,95811.98
2022-12-08T00:32:14.230Z,95813.39
2022-12-08T00:34:42.282Z,95819.23
2022-12-08T00:37:10.413Z,95823.42
2022-12-08T00:39:38.444Z,95823.65
2022-12-08T00:42:12.387Z,95827.30
2022-12-08T00:44:45.578Z,95828.77
2022-12-08T00:47:14.472Z,95833.09
2022-12-08T00:49:42.481Z,95838.38
2022-12-08T00:52:10.416Z,95844.48
2022-12-08T00:54:38.486Z,95847.27
2022-12-08T00:57:06.969Z,95851.25
2022-12-08T00:59:35.031Z,95848.27
2022-12-08T01:02:03.243Z,95849.36
2022-12-08T01:04:31.230Z,95851.29
2022-12-08T01:06:59.168Z,95851.15
2022-12-08T01:09:27.259Z,95849.79
2022-12-08T01:11:55.644Z,95851.30
2022-12-08T01:14:23.673Z,95849.73
2022-12-08T01:16:51.935Z,95854.95
2022-12-08T01:19:20.372Z,95854.39
2022-12-08T01:21:48.500Z,95853.27
2022-12-08T01:24:19.391Z,95852.98
2022-12-08T01:26:48.730Z,95853.21
2022-12-08T01:29:16.928Z,95852.73
2022-12-08T01:31:44.972Z,95850.92
2022-12-08T01:34:13.096Z,95846.02
2022-12-08T01:36:42.503Z,95840.30
2022-12-08T01:39:18.468Z,95836.81
2022-12-08T01:41:48.090Z,95840.29
2022-12-08T01:44:16.069Z,95842.26
2022-12-08T01:46:48.446Z,95845.55
2022-12-08T01:49:22.243Z,95845.46
2022-12-08T01:52:14.197Z,95848.27
2022-12-08T01:54:57.513Z,95848.30
2022-12-08T01:57:34.655Z,95850.48
2022-12-08T02:00:10.060Z,95852.52
2022-12-08T02:02:53.706Z,95856.96
2022-12-08T02:05:26.823Z,95857.53
2022-12-08T02:07:57.291Z,95861.88
2022-12-08T02:10:29.914Z,95867.40
2022-12-08T02:12:59.521Z,95866.83
2022-12-08T02:15:42.875Z,95865.05
2022-12-08T02:18:26.090Z,95865.98
2022-12-08T02:21:09.247Z,95868.30
2022-12-08T02:23:51.353Z,95867.52
2022-12-08T02:27:02.584Z,95867.20
2022-12-08T02:29:33.641Z,95870.23
2022-12-08T02:32:39.302Z,95867.76
2022-12-08T02:35:10.339Z,95867.80
2022-12-08T02:37:44.124Z,95867.39
2022-12-08T02:40:32.875Z,95866.02
2022-12-08T02:43:07.818Z,95863.73
2022-12-08T02:45:45.766Z,95860.09
2022-12-08T02:48:15.404Z,95863.16
2022-12-08T02:50:43.513Z,95865.20
2022-12-08T02:56:00.489Z,95863.77
2022-12-08T02:58:52.752Z,95864.48
2022-12-08T03:02:31.771Z,95863.96
2022-12-08T03:05:10.406Z,95861.16
2022-12-08T03:07:52.991Z,95855.94
2022-12-08T03:10:36.217Z,95856.75
2022-12-08T03:13:15.927Z,95857.59
2022-12-08T03:15:49.532Z,95857.54
2022-12-08T03:18:23.402Z,95857.73
2022-12-08T03:20:52.162Z,95858.34
2022-12-08T03:23:22.375Z,95853.88
2022-12-08T03:26:13.475Z,95854.19
2022-12-08T03:28:41.553Z,95853.70
2022-12-08T03:31:14.628Z,95850.53
2022-12-08T03:33:45.839Z,95854.34
2022-12-08T03:36:14.878Z,95853.10
2022-12-08T03:38:44.987Z,95851.23
2022-12-08T03:41:19.466Z,95853.77
2022-12-08T03:44:05.867Z,95858.15
2022-12-08T03:46:33.886Z,95860.41
2022-12-08T03:49:01.784Z,95864.31
2022-12-08T03:51:29.955Z,95864.95
2022-12-08T03:53:57.873Z,95863.89
2022-12-08T03:56:34.995Z,95862.92
2022-12-08T03:59:04.477Z,95859.64
2022-12-08T04:01:33.002Z,95857.40
2022-12-08T04:04:00.995Z,95856.63
2022-12-08T04:06:29.104Z,95854.55
2022-12-08T04:08:57.030Z,95859.20
2022-12-08T04:11:25.022Z,95860.77
2022-12-08T04:13:52.985Z,95859.16
2022-12-08T04:16:24.078Z,95859.05
2022-12-08T04:18:52.601Z,95855.20
2022-12-08T04:21:20.683Z,95857.33
2022-12-08T04:23:49.248Z,95856.71
2022-12-08T04:26:17.824Z,95854.39
2022-12-08T04:28:45.875Z,95851.25
2022-12-08T04:31:14.043Z,95850.66
2022-12-08T04:33:42.089Z,95849.98
2022-12-08T04:36:10.168Z,95845.39
2022-12-08T04:38:38.218Z,95844.86
2022-12-08T04:41:06.609Z,95846.49
2022-12-08T04:43:35.732Z,95840.52
2022-12-08T04:46:08.295Z,95842.33
2022-12-08T04:48:40.746Z,95844.67
2022-12-08T04:51:17.123Z,95845.99
2022-12-08T04:53:46.960Z,95845.27
2022-12-08T04:56:16.904Z,95843.98
2022-12-08T04:58:45.961Z,95844.73
2022-12-08T05:01:14.602Z,95845.34
2022-12-08T05:03:42.643Z,95849.86
2022-12-08T05:06:13.677Z,95853.72
2022-12-08T05:08:43.112Z,95856.24
2022-12-08T05:11:13.265Z,95857.24
2022-12-08T05:13:41.496Z,95854.70
2022-12-08T05:16:12.583Z,95856.40
2022-12-08T05:18:42.096Z,95864.20
2022-12-08T05:21:10.908Z,95871.19
2022-12-08T05:23:39.093Z,95873.77
2022-12-08T05:26:07.173Z,95872.27
2022-12-08T05:28:43.511Z,95874.85
2022-12-08T05:31:12.587Z,95873.27
2022-12-08T05:33:40.822Z,95877.59
2022-12-08T05:36:10.290Z,95881.47
2022-12-08T05:38:38.691Z,95880.27
2022-12-08T05:41:19.560Z,95880.75
2022-12-08T05:43:48.924Z,95878.27
2022-12-08T05:46:17.818Z,95882.56
2022-12-08T05:48:45.863Z,95885.52
2022-12-08T05:51:23.090Z,95882.04
2022-12-08T05:53:52.614Z,95879.04
2022-12-08T05:56:21.014Z,95878.51
2022-12-08T05:58:49.590Z,95877.52
2022-12-08T06:01:26.339Z,95881.16
2022-12-08T06:03:55.286Z,95882.30
2022-12-08T06:06:23.281Z,95884.60
2022-12-08T06:08:51.351Z,95885.02
2022-12-08T06:11:21.718Z,95883.46
2022-12-08T06:13:50.564Z,95884.45
2022-12-08T06:16:19.701Z,95885.08
2022-12-08T06:18:47.756Z,95888.91
2022-12-08T06:21:16.576Z,95888.44
2022-12-08T06:23:44.679Z,95886.66
2022-12-08T06:26:14.756Z,95884.88
2022-12-08T06:28:43.623Z,95884.39
2022-12-08T06:31:19.113Z,95887.52
2022-12-08T06:33:47.471Z,95891.54
2022-12-08T06:36:17.861Z,95889.95
2022-12-08T06:38:46.071Z,95890.07
2022-12-08T06:41:14.101Z,95885.21
2022-12-08T06:43:43.715Z,95889.02
2022-12-08T06:46:15.592Z,95895.20
2022-12-08T06:48:43.882Z,95897.45
2022-12-08T06:51:15.790Z,95896.54
2022-12-08T06:53:46.608Z,95894.85
2022-12-08T06:56:15.963Z,95896.08
2022-12-08T06:58:49.016Z,95890.00
2022-12-08T07:01:20.521Z,95894.30
2022-12-08T07:03:48.681Z,95900.06
2022-12-08T07:06:21.654Z,95903.83
2022-12-08T07:08:50.261Z,95908.80
2022-12-08T07:11:22.041Z,95915.23
2022-12-08T07:13:51.060Z,95915.70
2022-12-08T07:16:19.214Z,95920.03
2022-12-08T07:18:47.244Z,95914.67
2022-12-08T07:21:16.481Z,95914.67
2022-12-08T07:23:54.261Z,95915.64
2022-12-08T07:26:25.626Z,95917.39
2022-12-08T07:28:53.702Z,95917.79
2022-12-08T07:31:24.537Z,95917.47
2022-12-08T07:33:52.994Z,95914.34
2022-12-08T07:36:21.600Z,95910.44
2022-12-08T07:38:50.293Z,95915.39
2022-12-08T07:41:23.336Z,95907.88
2022-12-08T07:43:53.882Z,95914.23
2022-12-08T07:46:23.999Z,95914.45
2022-12-08T07:48:55.441Z,95917.25
2022-12-08T07:51:25.049Z,95915.99
2022-12-08T07:53:54.863Z,95910.47
2022-12-08T07:56:24.283Z,95916.35
2022-12-08T07:58:52.201Z,95922.86
2022-12-08T08:01:20.148Z,95919.50
2022-12-08T08:03:48.386Z,95922.66
2022-12-08T08:06:16.825Z,95922.23
2022-12-08T08:08:45.124Z,95921.59
2022-12-08T08:11:20.919Z,95925.21
2022-12-08T08:13:50.419Z,95922.20
2022-12-08T08:16:19.644Z,95922.86
2022-12-08T08:18:51.618Z,95922.77
2022-12-08T08:24:09.147Z,95924.90
2022-12-08T08:26:37.718Z,95927.65
2022-12-08T08:29:05.793Z,95924.64
2022-12-08T08:31:33.766Z,95923.21
2022-12-08T08:34:06.509Z,95916.98
2022-12-08T08:36:34.812Z,95915.63
2022-12-08T08:39:03.992Z,95914.80
2022-12-08T08:41:31.853Z,95911.02
2022-12-08T08:43:59.788Z,95912.41
2022-12-08T08:46:27.888Z,95915.05
2022-12-08T08:48:56.379Z,95911.89
2022-12-08T08:51:24.447Z,95910.70
2022-12-08T08:53:52.352Z,95906.98
2022-12-08T08:56:20.407Z,95900.27
2022-12-08T08:58:49.771Z,95897.27
2022-12-08T09:01:21.731Z,95887.06
2022-12-08T09:03:50.121Z,95881.06
2022-12-08T09:06:18.519Z,95878.92
2022-12-08T09:08:48.237Z,95870.21
2022-12-08T09:11:18.667Z,95872.15
2022-12-08T09:13:51.659Z,95872.05
2022-12-08T09:16:20.120Z,95869.64
2022-12-08T09:18:49.697Z,95866.29
2022-12-08T09:21:22.723Z,95864.95
2022-12-08T09:23:56.210Z,95869.55
2022-12-08T09:26:28.057Z,95865.64
2022-12-08T09:28:57.415Z,95866.36
2022-12-08T09:31:25.769Z,95863.04
2022-12-08T09:33:53.864Z,95857.62
2022-12-08T09:36:22.052Z,95856.52
2022-12-08T09:38:53.792Z,95859.86
2022-12-08T09:41:48.369Z,95854.02
2022-12-08T09:44:48.337Z,95849.27
2022-12-08T09:47:30.634Z,95851.05
2022-12-08T09:50:08.670Z,95852.64
2022-12-08T09:52:47.300Z,95850.23
2022-12-08T09:55:22.561Z,95844.38
2022-12-08T09:58:00.344Z,95848.98
2022-12-08T10:00:28.240Z,95848.81
2022-12-08T10:02:57.616Z,95841.14
2022-12-08T10:05:28.392Z,95838.47
2022-12-08T10:08:17.990Z,95838.02
2022-12-08T10:11:04.677Z,95835.52
2022-12-08T10:13:42.539Z,95834.05
2022-12-08T10:16:29.703Z,95832.58
2022-12-08T10:19:11.350Z,95837.10
2022-12-08T10:21:40.634Z,95828.52
2022-12-08T10:24:22.651Z,95830.22
2022-12-08T10:26:50.602Z,95827.30
2022-12-08T10:29:19.061Z,95825.02
2022-12-08T10:31:47.059Z,95817.58
2022-12-08T10:34:19.684Z,95813.02
2022-12-08T10:36:51.030Z,95804.50
2022-12-08T10:39:40.723Z,95797.95
2022-12-08T10:42:14.501Z,95797.94
2022-12-08T10:45:00.779Z,95803.40
2022-12-08T10:47:30.362Z,95808.16
2022-12-08T10:50:15.679Z,95799.80
2022-12-08T10:52:43.681Z,95797.96
2022-12-08T10:55:21.206Z,95798.41
2022-12-08T10:57:49.244Z,95791.75
2022-12-08T11:00:24.222Z,95783.36
2022-12-08T11:03:04.774Z,95777.97
2022-12-08T11:05:36.763Z,95778.13
2022-12-08T11:08:05.922Z,95781.66
2022-12-08T11:10:37.742Z,95780.08
2022-12-08T11:13:13.455Z,95776.27
2022-12-08T11:15:41.596Z,95775.42
2022-12-08T11:18:28.152Z,95774.91
2022-12-08T11:20:59.547Z,95769.85
2022-12-08T11:23:29.112Z,95763.04
2022-12-08T11:26:06.718Z,95763.49
2022-12-08T11:28:35.035Z,95758.95
2022-12-08T11:31:15.033Z,95752.52
2022-12-08T11:33:44.746Z,95752.98
2022-12-08T11:36:15.695Z,95755.85
2022-12-08T11:38:49.068Z,95753.58
2022-12-08T11:41:20.002Z,95746.82
2022-12-08T11:44:06.926Z,95738.33
2022-12-08T11:46:50.966Z,95732.96
2022-12-08T11:49:20.792Z,95727.05
2022-12-08T11:52:00.254Z,95728.89
2022-12-08T11:54:40.210Z,95734.89
2022-12-08T11:57:16.779Z,95731.17
2022-12-08T11:59:46.398Z,95723.19
2022-12-08T12:02:21.761Z,95713.98
2022-12-08T12:05:05.272Z,95717.93
2022-12-08T12:07:45.425Z,95716.89
2022-12-08T12:10:22.547Z,95717.50
2022-12-08T12:13:28.351Z,95718.26
2022-12-08T12:16:11.440Z,95704.20
2022-12-08T12:18:57.457Z,95700.36
2022-12-08T12:21:40.463Z,95706.95
2022-12-08T12:24:25.153Z,95703.08
2022-12-08T12:27:00.935Z,95696.67
2022-12-08T12:29:33.823Z,95698.20
2022-12-08T12:32:07.051Z,95706.32
2022-12-08T12:34:44.171Z,95710.42
2022-12-08T12:37:18.686Z,95715.90
2022-12-08T12:39:56.021Z,95718.11
2022-12-08T12:42:38.487Z,95718.29
2022-12-08T12:45:30.130Z,95706.97
2022-12-08T12:47:58.947Z,95699.44
2022-12-08T12:50:44.692Z,95694.45
2022-12-08T12:53:15.709Z,95691.89
2022-12-08T12:55:46.509Z,95691.46
2022-12-08T12:58:30.067Z,95686.98
2022-12-08T13:01:13.264Z,95687.91
2022-12-08T13:03:48.751Z,95684.36
2022-12-08T13:06:32.569Z,95685.63
2022-12-08T13:09:00.795Z,95687.00
2022-12-08T13:11:28.731Z,95685.09
2022-12-08T13:14:04.142Z,95683.23
2022-12-08T13:16:35.405Z,95674.83
2022-12-08T13:19:06.020Z,95662.04
2022-12-08T13:21:38.154Z,95660.69
2022-12-08T13:24:20.023Z,95657.81
2022-12-08T13:26:50.682Z,95657.96
2022-12-08T13:29:22.564Z,95652.36
2022-12-08T13:31:55.556Z,95647.93
2022-12-08T13:34:41.998Z,95641.11
2022-12-08T13:37:15.725Z,95637.83
2022-12-08T13:39:51.233Z,95643.09
2022-12-08T13:42:31.204Z,95650.88
2022-12-08T13:45:36.250Z,95646.70
2022-12-08T13:48:35.259Z,95646.45
2022-12-08T13:57:24.572Z,95641.55
2022-12-08T13:59:52.519Z,95632.52
2022-12-08T14:02:40.780Z,95622.59
2022-12-08T14:05:19.539Z,95622.81
2022-12-08T14:07:54.041Z,95618.40
2022-12-08T14:10:28.364Z,95616.71
2022-12-08T14:13:02.715Z,95619.23
2022-12-08T14:15:38.369Z,95620.17
2022-12-08T14:18:25.555Z,95624.48
2022-12-08T14:21:20.793Z,95632.15
2022-12-08T14:23:48.959Z,95630.80
2022-12-08T14:26:18.012Z,95634.13
2022-12-08T14:28:45.949Z,95639.33
2022-12-08T14:31:14.838Z,95643.89
2022-12-08T14:33:43.175Z,95645.03
2022-12-08T14:36:15.894Z,95640.02
2022-12-08T14:38:45.362Z,95635.70
2022-12-08T14:41:13.308Z,95632.14
2022-12-08T14:43:43.143Z,95629.98
2022-12-08T14:46:23.032Z,95624.34
2022-12-08T14:48:51.159Z,95627.64
2022-12-08T14:51:19.009Z,95627.56
2022-12-08T14:53:59.946Z,95626.40
2022-12-08T14:57:00.807Z,95627.23
2022-12-08T14:59:31.206Z,95623.84
2022-12-08T15:02:16.233Z,95617.20
2022-12-08T15:04:47.936Z,95616.54
2022-12-08T15:07:21.725Z,95610.24
2022-12-08T15:10:08.915Z,95604.56
2022-12-08T15:12:37.203Z,95617.73
2022-12-08T15:15:08.607Z,95625.41
2022-12-08T15:17:51.784Z,95622.08
2022-12-08T15:20:34.608Z,95618.63
2022-12-08T15:23:04.895Z,95612.07
2022-12-08T15:25:32.992Z,95607.15
2022-12-08T15:28:03.162Z,95605.35
2022-12-08T15:30:31.305Z,95606.64
2022-12-08T15:32:59.169Z,95609.48
2022-12-08T15:35:28.144Z,95610.53
2022-12-08T15:37:55.987Z,95605.55
2022-12-08T15:40:26.032Z,95598.14
2022-12-08T15:42:54.051Z,95594.09
2022-12-08T15:45:28.780Z,95591.89
2022-12-08T15:47:59.051Z,95593.73
2022-12-08T15:50:27.415Z,95594.48
2022-12-08T15:52:55.324Z,95593.20
2022-12-08T15:55:23.379Z,95591.95
2022-12-08T16:00:52.364Z,95587.14
2022-12-08T16:04:13.775Z,95589.08
2022-12-08T16:07:04.831Z,95596.33
2022-12-08T16:09:16.291Z,95595.13
2022-12-08T16:12:08.557Z,95588.41
2022-12-08T16:17:27.469Z,95573.03
2022-12-08T16:19:55.586Z,95566.73
2022-12-08T16:22:54.158Z,95565.41
2022-12-08T16:25:20.666Z,95562.13
2022-12-08T16:28:36.945Z,95554.29
2022-12-08T16:30:39.974Z,95549.59
2022-12-08T16:33:07.951Z,95548.41
2022-12-08T16:35:36.052Z,95542.55
2022-12-08T16:38:04.998Z,95538.38
2022-12-08T16:40:33.406Z,95539.33
2022-12-08T16:43:01.598Z,95540.06
2022-12-08T16:45:30.575Z,95533.28
2022-12-08T16:48:00.998Z,95533.02
2022-12-08T16:50:32.633Z,95532.63
2022-12-08T16:53:06.918Z,95531.39
2022-12-08T16:55:35.626Z,95532.84
2022-12-08T16:58:03.918Z,95528.33
2022-12-08T17:00:37.165Z,95535.19
2022-12-08T17:03:08.230Z,95549.24
2022-12-08T17:05:36.535Z,95557.02
2022-12-08T17:08:04.692Z,95559.77
2022-12-08T17:10:34.681Z,95558.64
2022-12-08T17:13:02.777Z,95556.40
2022-12-08T17:15:30.981Z,95548.23
2022-12-08T17:17:58.984Z,95540.45
2022-12-08T17:20:29.007Z,95539.39
2022-12-08T17:22:58.424Z,95543.50
2022-12-08T17:25:27.102Z,95546.03
2022-12-08T17:27:56.445Z,95545.23
2022-12-08T17:30:24.435Z,95543.59
2022-12-08T17:32:52.970Z,95539.14
2022-12-08T17:35:22.448Z,95535.23
2022-12-08T17:37:50.383Z,95537.15
2022-12-08T17:40:18.428Z,95539.48
2022-12-08T17:42:46.474Z,95536.16
2022-12-08T17:45:14.350Z,95534.34
2022-12-08T17:47:44.056Z,95535.00
2022-12-08T17:50:12.084Z,95534.98
2022-12-08T17:52:39.969Z,95533.27
2022-12-08T17:55:08.224Z,95534.48
2022-12-08T17:57:36.205Z,95530.43
2022-12-08T18:00:05.668Z,95526.92
2022-12-08T18:02:40.013Z,95526.80
2022-12-08T18:05:08.328Z,95529.23
2022-12-08T18:07:36.330Z,95531.37
2022-12-08T18:10:04.879Z,95526.44
2022-12-08T18:12:33.170Z,95524.55
2022-12-08T18:15:01.280Z,95523.84
2022-12-08T18:17:29.251Z,95520.32
2022-12-08T18:19:57.246Z,95518.34
2022-12-08T18:22:26.723Z,95524.11
2022-12-08T18:24:54.657Z,95522.11
2022-12-08T18:27:23.217Z,95523.39
2022-12-08T18:29:51.128Z,95519.14
2022-12-08T18:32:22.783Z,95512.95
2022-12-08T18:34:51.012Z,95517.23
2022-12-08T18:37:19.201Z,95518.20
2022-12-08T18:39:48.070Z,95517.09
2022-12-08T18:42:24.978Z,95517.19
2022-12-08T18:45:01.819Z,95509.52
2022-12-08T18:47:32.407Z,95504.52
2022-12-08T18:50:00.292Z,95504.69
2022-12-08T18:52:32.193Z,95508.05
2022-12-08T18:55:08.409Z,95505.28
2022-12-08T18:57:42.433Z,95511.04
2022-12-08T19:00:14.499Z,95512.93
2022-12-08T19:02:42.801Z,95507.98
2022-12-08T19:05:13.385Z,95501.14
2022-12-08T19:07:42.760Z,95498.50
2022-12-08T19:10:11.773Z,95498.02
2022-12-08T19:12:39.914Z,95500.16
2022-12-08T19:15:08.556Z,95501.94
2022-12-08T19:17:36.778Z,95504.21
2022-12-08T19:20:06.955Z,95501.44
2022-12-08T19:22:35.168Z,95506.95
2022-12-08T19:25:04.394Z,95510.96
2022-12-08T19:27:34.201Z,95512.11
2022-12-08T19:30:02.308Z,95509.90
2022-12-08T19:32:31.085Z,95506.52
2022-12-08T19:34:59.007Z,95511.27
2022-12-08T19:37:27.095Z,95512.10
2022-12-08T19:40:13.850Z,95504.73
2022-12-08T19:43:00.411Z,95502.34
2022-12-08T19:45:28.434Z,95499.14
2022-12-08T19:47:56.413Z,95499.10
2022-12-08T19:50:36.307Z,95497.73
2022-12-08T19:53:10.825Z,95492.43
2022-12-08T19:55:39.897Z,95489.39
2022-12-08T19:58:08.262Z,95488.34
2022-12-08T20:00:38.621Z,95486.13
2022-12-08T20:03:07.397Z,95481.98
2022-12-08T20:05:36.845Z,95482.01
2022-12-08T20:08:05.164Z,95481.75
2022-12-08T20:10:37.754Z,95480.34
2022-12-08T20:13:25.123Z,95480.62
2022-12-08T20:15:53.989Z,95482.20
2022-12-08T20:18:22.089Z,95478.67
2022-12-08T20:20:50.180Z,95476.86
2022-12-08T20:23:18.247Z,95472.33
2022-12-08T20:25:47.597Z,95468.64
2022-12-08T20:28:15.739Z,95467.13
2022-12-08T20:30:46.882Z,95470.45
2022-12-08T20:33:18.354Z,95468.61
2022-12-08T20:35:46.975Z,95468.86
2022-12-08T20:38:14.925Z,95475.85
2022-12-08T20:40:44.562Z,95480.72
2022-12-08T20:43:12.985Z,95487.25
2022-12-08T20:45:41.092Z,95485.39
2022-12-08T20:48:09.070Z,95478.57
2022-12-08T20:50:37.328Z,95478.07
2022-12-08T20:53:06.327Z,95475.03
2022-12-08T20:55:35.724Z,95474.83
2022-12-08T20:58:03.831Z,95471.34
2022-12-08T21:00:31.956Z,95475.35
2022-12-08T21:03:01.096Z,95471.08
2022-12-08T21:05:29.556Z,95471.32
2022-12-08T21:07:57.798Z,95473.42
2022-12-08T21:10:55.505Z,95472.25
2022-12-08T21:13:23.868Z,95475.34
2022-12-08T21:15:52.140Z,95476.36
2022-12-08T21:22:41.665Z,95477.45
2022-12-08T21:25:23.490Z,95479.07
2022-12-08T21:32:25.766Z,95475.45
2022-12-08T21:35:01.947Z,95478.19
2022-12-08T22:01:03.185Z,95487.70
2022-12-08T22:08:35.480Z,95480.41
2022-12-08T22:12:02.514Z,95485.17
2022-12-08T22:24:34.382Z,95473.25
2022-12-08T22:41:28.468Z,95475.33
2022-12-08T23:26:44.825Z,95449.94
2022-12-08T23:29:12.908Z,95451.98
2022-12-08T23:31:40.964Z,95451.21
2022-12-08T23:34:09.742Z,95454.06
2022-12-08T23:36:38.081Z,95455.25
2022-12-08T23:39:06.524Z,95451.85
2022-12-08T23:41:34.677Z,95451.73
2022-12-08T23:44:02.939Z,95448.20
2022-12-08T23:46:32.329Z,95444.96
2022-12-08T23:49:00.528Z,95444.27
2022-12-08T23:51:28.719Z,95451.13
2022-12-08T23:53:57.116Z,95456.52
2022-12-08T23:56:29.983Z,95452.54
2022-12-08T23:59:01.144Z,95454.54
